Time;durP1;ratioP1;P1;durP2;ratioP2;P2;SDS_P1;SDS_P2;PMS_P1;PMS_P2;Temp;Humidity;BMP_temperature;BMP_pressure;BME280_temperature;BME280_humidity;BME280_pressure;Samples;Min_cycle;Max_cycle;Signal;HPM_P1;HPM_P2
2023/04/20 00:02:16;;;;;;;0.20;0.20;;;;;;;5.81;100.00;98428.97;4879581;29;20295;-76
2023/04/20 00:04:45;;;;;;;0.20;0.20;;;;;;;5.87;100.00;98449.94;4891148;29;20276;-75
2023/04/20 00:07:12;;;;;;;0.20;0.20;;;5.70;99.90;;;5.88;100.00;98451.66;4886301;29;20232;-75
2023/04/20 00:09:40;;;;;;;0.20;0.20;;;;;;;5.79;100.00;98451.72;4882194;29;20235;-76
2023/04/20 00:12:07;;;;;;;0.20;0.20;;;5.70;99.90;;;5.75;100.00;98449.97;4881986;29;20233;-76
2023/04/20 00:14:35;;;;;;;0.20;0.20;;;5.60;99.90;;;5.68;100.00;98459.63;4853327;29;20241;-75
2023/04/20 00:17:02;;;;;;;0.20;0.20;;;5.60;99.90;;;5.66;100.00;98477.09;4844761;29;20335;-76
2023/04/20 00:19:32;;;;;;;0.20;0.20;;;;;;;5.66;100.00;98476.22;4883553;29;20239;-76
2023/04/20 00:22:00;;;;;;;0.20;0.20;;;;;;;5.62;100.00;98477.97;4878244;29;20247;-75
2023/04/20 00:24:27;;;;;;;0.10;0.10;;;5.50;99.90;;;5.63;100.00;98489.34;4874137;29;20235;-75
2023/04/20 00:26:55;;;;;;;0.20;0.20;;;;;;;5.63;100.00;98479.72;4861104;29;20239;-75
2023/04/20 00:29:22;;;;;;;0.17;0.17;;;;;;;5.59;100.00;98484.97;4868237;29;20300;-76
2023/04/20 00:31:50;;;;;;;0.20;0.20;;;;;;;5.55;100.00;98481.50;4892512;29;20698;-76
2023/04/20 00:34:17;;;;;;;0.20;0.20;;;;;;;5.65;100.00;98485.84;4878385;29;20300;-76
2023/04/20 00:36:45;;;;;;;0.17;0.17;;;;;;;5.56;100.00;98478.00;4894310;29;20284;-76
2023/04/20 00:39:12;;;;;;;0.20;0.20;;;;;;;5.59;100.00;98482.38;4895047;29;20259;-76
2023/04/20 00:41:39;;;;;;;0.28;0.28;;;;;;;5.56;100.00;98474.50;4877937;29;20307;-75
2023/04/20 00:44:10;;;;;;;0.20;0.20;;;;;;;5.46;100.00;98468.41;4891168;29;20260;-76
2023/04/20 00:46:37;;;;;;;0.20;0.20;;;;;;;5.42;100.00;98475.41;4878406;29;20269;-75
2023/04/20 00:49:06;;;;;;;0.20;0.20;;;5.30;99.90;;;5.38;100.00;98486.78;4893721;29;20241;-76
2023/04/20 00:51:34;;;;;;;0.20;0.20;;;5.30;99.90;;;5.30;100.00;98487.66;4861928;29;20287;-76
2023/04/20 00:54:02;;;;;;;0.20;0.20;;;;;;;5.33;100.00;98506.88;4894573;29;20267;-76
2023/04/20 00:56:29;;;;;;;0.20;0.20;;;;;;;5.26;100.00;98505.13;4894878;29;20300;-76
2023/04/20 00:58:57;;;;;;;0.20;0.20;;;;;;;5.21;100.00;98524.34;4876696;29;20704;-76
2023/04/20 01:01:24;;;;;;;0.20;0.20;;;;;;;5.17;100.00;98528.69;4879765;29;20304;-76
2023/04/20 01:03:52;;;;;;;0.20;0.20;;;5.10;99.90;;;5.19;100.00;98540.03;4879652;29;20231;-76
2023/04/20 01:06:20;;;;;;;0.20;0.20;;;;;;;5.11;100.00;98537.41;4858203;29;20285;-76
2023/04/20 01:08:49;;;;;;;0.20;0.20;;;5.00;99.90;;;5.07;100.00;98530.44;4893381;29;20244;-76
2023/04/20 01:11:17;;;;;;;0.20;0.20;;;5.00;99.90;;;5.12;100.00;98543.53;4890009;29;20244;-76
2023/04/20 01:13:44;;;;;;;0.20;0.20;;;;;;;5.06;100.00;98559.25;4894384;29;20248;-76
2023/04/20 01:16:12;;;;;;;0.20;0.20;;;5.00;99.90;;;5.12;100.00;98569.72;4891055;29;20268;-76
2023/04/20 01:18:42;;;;;;;0.20;0.20;;;5.00;99.90;;;5.07;100.00;98576.72;4892769;29;20240;-76
2023/04/20 01:21:12;;;;;;;0.20;0.20;;;5.00;99.90;;;5.10;100.00;98593.31;4893145;29;20236;-76
2023/04/20 01:23:39;;;;;;;0.30;0.30;;;;;;;5.01;100.00;98585.44;4894702;29;20248;-76
2023/04/20 01:26:13;;;;;;;0.20;0.20;;;4.90;99.90;;;4.97;100.00;98596.78;4876806;29;20232;-76
2023/04/20 01:28:40;;;;;;;0.20;0.20;;;;;;;4.97;100.00;98591.53;4878380;29;20294;-75
2023/04/20 01:31:09;;;;;;;0.20;0.20;;;4.90;99.90;;;4.96;100.00;98615.09;4885878;29;20275;-76
2023/04/20 01:33:36;;;;;;;0.20;0.20;;;;;;;4.94;100.00;98620.34;4892921;29;20323;-76
2023/04/20 01:36:06;;;;;;;0.20;0.20;;;4.80;99.90;;;4.95;100.00;98634.31;4890498;29;20228;-76
2023/04/20 01:38:34;;;;;;;0.30;0.30;;;;;;;4.96;100.00;98628.22;4860035;29;20303;-76
2023/04/20 01:41:06;;;;;;;2.65;0.95;;;4.80;99.90;;;4.92;100.00;98643.03;4887663;29;20300;-76
2023/04/20 01:43:35;;;;;;;0.20;0.20;;;4.80;99.90;;;4.90;100.00;98651.75;4865506;29;20254;-76
2023/04/20 01:46:04;;;;;;;0.20;0.20;;;4.80;99.90;;;4.86;100.00;98653.50;4871467;29;20232;-76
2023/04/20 01:48:31;;;;;;;0.20;0.20;;;;;;;4.76;100.00;98655.22;4891705;29;20270;-76
2023/04/20 01:50:59;;;;;;;0.30;0.30;;;;;;;4.81;100.00;98663.94;4889486;29;20304;-75
2023/04/20 01:53:26;;;;;;;0.20;0.20;;;;;;;4.69;100.00;98660.41;4892228;29;20323;-76
2023/04/20 01:55:54;;;;;;;0.20;0.20;;;4.80;99.90;;;4.80;100.00;98677.91;4890777;29;20231;-76
2023/04/20 01:58:21;;;;;;;0.17;0.17;;;;;;;4.82;100.00;98696.25;4874949;29;20236;-76
2023/04/20 02:00:49;;;;;;;0.20;0.20;;;;;;;4.88;100.00;98713.72;4885342;29;20239;-76
2023/04/20 02:03:16;;;;;;;0.20;0.20;;;;;;;4.80;100.00;98714.56;4888378;29;20321;-76
2023/04/20 02:05:44;;;;;;;0.20;0.20;;;;;;;4.71;100.00;98718.91;4892845;29;20335;-76
2023/04/20 02:08:11;;;;;;;0.20;0.20;;;4.60;99.90;;;4.63;100.00;98716.25;4892444;29;20235;-76
2023/04/20 02:10:38;;;;;;;0.20;0.20;;;;;;;4.58;100.00;98720.59;4890231;29;20239;-76
2023/04/20 02:13:06;;;;;;;0.20;0.20;;;;;;;4.62;100.00;98731.94;4891226;29;20246;-76
2023/04/20 02:15:33;;;;;;;0.20;0.20;;;;;;;4.63;100.00;98742.41;4872708;29;20335;-76
2023/04/20 02:18:00;;;;;;;0.20;0.20;;;4.70;99.90;;;4.65;100.00;98752.91;4873743;29;20264;-76
2023/04/20 02:20:28;;;;;;;0.20;0.20;;;;;;;4.56;100.00;98761.56;4872202;29;20256;-76
2023/04/20 02:22:55;;;;;;;0.20;0.20;;;;;;;4.65;100.00;98779.97;4874715;29;20315;-75
2023/04/20 02:25:23;;;;;;;0.20;0.20;;;;;;;4.62;100.00;98790.41;4889876;29;20287;-76
2023/04/20 02:27:50;;;;;;;0.20;0.20;;;;;;;4.72;100.00;98807.94;4889559;29;20288;-76
2023/04/20 02:30:17;;;;;;;0.20;0.20;;;;;;;4.62;100.00;98813.97;4868453;29;20346;-76
2023/04/20 02:32:45;;;;;;;0.20;0.20;;;;;;;4.60;100.00;98820.94;4882234;29;20323;-76
2023/04/20 02:35:12;;;;;;;0.20;0.20;;;;;;;4.66;100.00;98841.06;4885891;29;20240;-76
2023/04/20 02:37:40;;;;;;;0.20;0.20;;;;;;;4.73;100.00;98853.31;4888271;29;20757;-76
2023/04/20 02:40:07;;;;;;;0.20;0.20;;;4.60;99.90;;;4.63;100.00;98848.88;4888703;29;20766;-76
2023/04/20 02:42:35;;;;;;;0.20;0.20;;;;;;;4.71;100.00;98861.16;4888725;29;20251;-75
2023/04/20 02:45:02;;;;;;;0.20;0.20;;;;;;;4.75;100.00;98872.53;4886462;29;20240;-76
2023/04/20 02:47:30;;;;;;;0.20;0.20;;;;;;;4.69;100.00;98862.91;4890577;29;20326;-76
2023/04/20 02:49:57;;;;;;;0.20;0.20;;;;;;;4.79;100.00;98888.28;4895245;29;20232;-76
2023/04/20 02:52:25;;;;;;;0.20;0.20;;;;;;;4.83;100.00;98894.41;4895675;29;20259;-76
2023/04/20 02:54:52;;;;;;;0.20;0.20;;;;;;;4.92;100.00;98907.56;4894392;29;20330;-76
2023/04/20 02:57:19;;;;;;;0.20;0.20;;;;;;;4.85;100.00;98903.16;4894838;29;20278;-76
2023/04/20 02:59:47;;;;;;;0.20;0.20;;;;;;;4.96;100.00;98924.19;4895149;29;20264;-74
2023/04/20 03:02:14;;;;;;;0.20;0.20;;;;;;;4.94;100.00;98920.69;4877722;29;20253;-75
2023/04/20 03:04:42;;;;;;;0.20;0.20;;;;;;;4.94;100.00;98937.28;4894631;29;20254;-74
2023/04/20 03:07:10;;;;;;;0.15;0.15;;;;;;;5.04;100.00;98938.22;4895648;29;20239;-74
2023/04/20 03:09:37;;;;;;;0.20;0.20;;;;;;;5.05;100.00;98938.22;4894476;29;20713;-74
2023/04/20 03:12:05;;;;;;;0.20;0.20;;;;;;;5.10;100.00;98948.75;4880472;29;20241;-75
2023/04/20 03:14:32;;;;;;;1.02;0.82;;;;;;;5.14;100.00;98958.38;4892595;29;20252;-74
2023/04/20 03:17:00;;;;;;;0.20;0.20;;;;;;;5.11;100.00;98950.50;4891968;29;20232;-74
2023/04/20 03:19:27;;;;;;;0.20;0.20;;;5.10;99.90;;;5.19;100.00;98958.41;4895402;29;20263;-74
2023/04/20 03:21:55;;;;;;;0.10;0.10;;;;;;;5.20;100.00;98953.22;4897419;29;20250;-74
2023/04/20 03:24:22;;;;;;;0.20;0.20;;;;;;;5.23;100.00;98948.00;4894646;29;20312;-74
2023/04/20 03:26:50;;;;;;;0.10;0.10;;;;;;;5.22;100.00;98943.63;4897325;29;20244;-74
2023/04/20 03:29:17;;;;;;;0.55;0.55;;;;;;;5.29;100.00;98936.66;4894303;29;20712;-74
2023/04/20 03:31:45;;;;;;;0.20;0.20;;;5.30;99.90;;;5.31;100.00;98941.06;4897277;29;20350;-74
2023/04/20 03:34:12;;;;;;;0.10;0.10;;;;;;;5.34;100.00;98942.81;4894113;29;20326;-74
2023/04/20 03:36:40;;;;;;;0.20;0.20;;;;;;;5.31;100.00;98943.69;4896570;29;20243;-74
2023/04/20 03:39:07;;;;;;;0.20;0.20;;;;;;;5.28;100.00;98938.41;4890736;29;20232;-73
2023/04/20 03:41:35;;;;;;;0.10;0.10;;;;;;;5.31;100.00;98948.91;4894330;29;20294;-74
2023/04/20 03:44:03;;;;;;;0.20;0.20;;;;;;;5.30;100.00;98956.78;4892450;29;20250;-73
2023/04/20 03:46:30;;;;;;;0.20;0.20;;;;;;;5.29;100.00;98950.66;4893579;29;20296;-76
2023/04/20 03:49:00;;;;;;;0.13;0.13;;;5.10;99.90;;;5.26;100.00;98949.75;4891761;29;20358;-76
2023/04/20 03:51:27;;;;;;;0.20;0.20;;;;;;;5.27;100.00;98959.38;4895002;29;20244;-74
2023/04/20 03:53:54;;;;;;;0.20;0.20;;;5.20;99.90;;;5.23;100.00;98960.22;4895380;29;20326;-74
2023/04/20 03:56:22;;;;;;;0.20;0.20;;;;;;;5.27;100.00;98970.72;4892503;29;20240;-73
2023/04/20 03:58:49;;;;;;;0.20;0.20;;;;;;;5.25;100.00;98968.97;4880514;29;20335;-75
2023/04/20 04:01:20;;;;;;;0.13;0.13;;;;;;;5.26;100.00;98981.22;4879501;29;20307;-76
2023/04/20 04:03:47;;;;;;;0.30;0.30;;;;;;;5.23;100.00;98979.44;4890330;29;20243;-75
2023/04/20 04:06:15;;;;;;;0.20;0.20;;;;;;;5.27;100.00;98975.97;4888145;29;20244;-74
2023/04/20 04:08:42;;;;;;;0.20;0.20;;;5.20;99.90;;;5.21;100.00;98975.94;4894225;29;20253;-76
2023/04/20 04:11:10;;;;;;;0.20;0.20;;;;;;;5.18;100.00;98980.25;4902489;29;20658;-76
2023/04/20 04:13:37;;;;;;;0.20;0.20;;;;;;;5.21;100.00;98990.78;4875932;29;20255;-76
2023/04/20 04:16:05;;;;;;;0.20;0.20;;;;;;;5.10;100.00;98986.31;4871999;29;20244;-74
2023/04/20 04:18:32;;;;;;;0.20;0.20;;;5.30;99.90;;;5.07;100.00;98988.03;4869543;29;20248;-74
2023/04/20 04:20:59;;;;;;;0.20;0.20;;;;;;;5.07;100.00;98999.38;4875936;29;20236;-73
2023/04/20 04:23:27;;;;;;;0.20;0.20;;;;;;;5.05;100.00;99002.84;4868050;29;20323;-73
2023/04/20 04:25:56;;;;;;;0.20;0.20;;;;;;;5.10;100.00;99011.63;4873849;29;20309;-73
2023/04/20 04:28:23;;;;;;;0.20;0.20;;;5.00;99.90;;;5.07;100.00;99015.09;4863421;29;20319;-73
2023/04/20 04:30:51;;;;;;;0.10;0.10;;;;;;;5.05;100.00;99029.94;4866705;29;20249;-73
2023/04/20 04:33:19;;;;;;;0.20;0.20;;;;;;;5.01;100.00;99022.91;4871905;29;20260;-73
2023/04/20 04:35:47;;;;;;;0.10;0.10;;;;;;;5.00;100.00;99034.25;4873281;29;20268;-74
2023/04/20 04:38:15;;;;;;;0.20;0.20;;;;;;;5.00;100.00;99041.22;4865058;29;20244;-75
2023/04/20 04:40:44;;;;;;;0.10;0.10;;;;;;;5.05;100.00;99050.88;4851850;29;20268;-75
2023/04/20 04:43:12;;;;;;;0.20;0.20;;;;;;;5.04;100.00;99053.50;4859852;29;20305;-75
2023/04/20 04:45:39;;;;;;;0.17;0.17;;;;;;;5.03;100.00;99063.09;4842119;29;20307;-74
2023/04/20 04:48:10;;;;;;;0.10;0.10;;;4.90;99.90;;;4.99;100.00;99070.91;4876870;29;20271;-73
2023/04/20 04:50:38;;;;;;;0.20;0.20;;;5.00;99.90;;;5.04;100.00;99082.31;4868122;29;20300;-73
2023/04/20 04:53:06;;;;;;;0.85;0.85;;;4.90;99.90;;;5.01;100.00;99096.25;4873054;29;20244;-73
2023/04/20 04:55:33;;;;;;;0.20;0.20;;;;;;;4.96;100.00;99084.88;4868156;29;20247;-74
2023/04/20 04:58:01;;;;;;;0.20;0.20;;;;;;;4.95;100.00;99093.59;4858320;29;20276;-73
2023/04/20 05:00:30;;;;;;;0.20;0.20;;;;;;;5.03;100.00;99112.00;4873615;29;20232;-73
2023/04/20 05:02:57;;;;;;;0.20;0.20;;;;;;;4.96;100.00;99108.44;4869518;29;20291;-73
2023/04/20 05:05:25;;;;;;;0.20;0.20;;;;;;;4.95;100.00;99116.28;4869443;29;20265;-73
2023/04/20 05:07:52;;;;;;;0.10;0.10;;;;;;;4.90;100.00;99123.22;4864465;29;20237;-73
2023/04/20 05:10:20;;;;;;;0.20;0.20;;;4.80;99.90;;;4.94;100.00;99131.13;4861669;29;20379;-74
2023/04/20 05:12:47;;;;;;;0.20;0.20;;;;;;;4.87;100.00;99131.91;4866801;29;20259;-73
2023/04/20 05:15:14;;;;;;;0.20;0.20;;;;;;;5.01;100.00;99167.00;4872448;29;20244;-73
2023/04/20 05:17:42;;;;;;;0.20;0.20;;;;;;;5.00;100.00;99169.59;4866365;29;20264;-73
2023/04/20 05:20:10;;;;;;;0.20;0.20;;;5.00;99.90;;;4.97;100.00;99169.56;4865067;29;20284;-75
2023/04/20 05:22:38;;;;;;;0.20;0.20;;;;;;;4.94;100.00;99161.69;4872792;29;20669;-75
2023/04/20 05:25:06;;;;;;;0.20;0.20;;;4.90;99.90;;;4.96;100.00;99167.81;4883497;29;20242;-74
2023/04/20 05:27:33;;;;;;;0.20;0.20;;;;;;;4.94;100.00;99174.78;4897885;29;20319;-74
2023/04/20 05:30:00;;;;;;;0.20;0.20;;;;;;;4.97;100.00;99182.66;4891741;29;20263;-75
2023/04/20 05:32:45;;;;;;;0.15;0.15;;;;;;;5.01;100.00;99203.69;4889485;29;20251;-73
2023/04/20 05:35:17;;;;;;;0.20;0.20;;;;;;;4.97;100.00;99214.09;4875089;29;20264;-74
2023/04/20 05:37:46;;;;;;;0.22;0.22;;;4.80;99.90;;;4.93;100.00;99209.69;4872502;29;20240;-74
2023/04/20 05:40:14;;;;;;;0.20;0.20;;;;;;;4.98;100.00;99227.22;4863775;29;20305;-75
2023/04/20 05:42:42;;;;;;;0.20;0.20;;;;;;;5.00;100.00;99240.34;4868223;29;20233;-74
2023/04/20 05:45:10;;;;;;;0.40;0.40;;;4.90;99.90;;;4.98;100.00;99248.19;4869764;29;20240;-74
2023/04/20 05:47:37;;;;;;;0.20;0.20;;;;;;;4.93;100.00;99244.63;4849445;29;20245;-73
2023/04/20 05:50:05;;;;;;;0.10;0.10;;;4.90;99.90;;;5.00;100.00;99266.53;4870592;29;20224;-75
2023/04/20 05:52:32;;;;;;;0.10;0.10;;;5.00;99.90;;;5.10;100.00;99292.88;4869978;29;20733;-74
2023/04/20 05:54:59;;;;;;;0.10;0.10;;;;;;;5.04;100.00;99295.41;4871904;29;20335;-74
2023/04/20 05:57:27;;;;;;;0.10;0.10;;;5.00;99.90;;;5.06;100.00;99303.28;4869849;29;20233;-74
2023/04/20 05:59:54;;;;;;;0.20;0.20;;;;;;;5.02;100.00;99310.25;4864549;29;20249;-76
2023/04/20 06:02:22;;;;;;;0.10;0.10;;;;;;;5.05;100.00;99318.13;4850552;29;20236;-76
2023/04/20 06:04:50;;;;;;;0.20;0.20;;;;;;;5.17;100.00;99343.63;4873429;29;20242;-73
2023/04/20 06:07:17;;;;;;;0.20;0.20;;;;;;;5.21;100.00;99358.56;4866571;29;20264;-74
2023/04/20 06:09:45;;;;;;;0.50;0.50;;;;;;;5.22;100.00;99356.81;4870291;29;20335;-74
2023/04/20 06:12:12;;;;;;;0.30;0.30;;;;;;;5.23;100.00;99363.81;4866734;29;20271;-75
2023/04/20 06:14:39;;;;;;;0.20;0.20;;;5.10;99.90;;;5.22;100.00;99362.06;4854669;29;20316;-75
2023/04/20 06:17:07;;;;;;;0.20;0.20;;;;;;;5.31;100.00;99377.91;4869649;29;20244;-74
2023/04/20 06:19:34;;;;;;;0.20;0.20;;;5.20;99.90;;;5.38;100.00;99395.47;4868393;29;20761;-75
2023/04/20 06:22:08;;;;;;;0.20;0.20;;;5.40;99.90;;;5.55;100.00;99417.56;4857227;29;20303;-74
2023/04/20 06:24:37;;;;;;;0.20;0.20;;;;;;;5.56;100.00;99418.44;4852357;29;20304;-74
2023/04/20 06:27:04;;;;;;;0.20;0.20;;;;;;;5.67;100.00;99424.69;4870036;29;20244;-75
2023/04/20 06:29:32;;;;;;;0.30;0.30;;;;;;;5.74;100.00;99424.78;4850430;29;20233;-74
2023/04/20 06:31:59;;;;;;;0.10;0.10;;;;;;;5.76;100.00;99432.69;4871602;29;20224;-75
2023/04/20 06:34:26;;;;;;;0.65;0.65;;;5.80;99.90;;;5.96;100.00;99467.06;4858959;29;20245;-75
2023/04/20 06:36:54;;;;;;;0.10;0.10;;;;;;;5.96;100.00;99467.94;4869000;29;20612;-75
2023/04/20 06:39:21;;;;;;;0.20;0.20;;;;;;;5.90;100.00;99465.22;4866215;29;20962;-74
2023/04/20 06:41:49;;;;;;;0.15;0.15;;;5.80;99.90;;;5.96;100.00;99467.94;4865312;29;20260;-76
2023/04/20 06:44:16;;;;;;;0.10;0.10;;;;;;;5.94;100.00;99464.41;4875232;29;20304;-75
2023/04/20 06:46:43;;;;;;;0.17;0.17;;;;;;;5.95;100.00;99471.41;4872358;29;20232;-74
2023/04/20 06:49:11;;;;;;;0.10;0.10;;;;;;;5.89;100.00;99460.84;4865562;29;20236;-74
2023/04/20 06:51:39;;;;;;;0.20;0.20;;;;;;;6.05;100.00;99482.91;4866903;29;20320;-74
2023/04/20 06:54:06;;;;;;;0.10;0.10;;;;;;;6.09;100.00;99485.59;4870195;29;20252;-74
2023/04/20 06:56:33;;;;;;;0.20;0.20;;;;;;;6.14;100.00;99485.63;4869398;29;20367;-74
2023/04/20 06:59:02;;;;;;;0.20;0.20;;;;;;;6.32;100.00;99500.72;4868404;29;20249;-75
2023/04/20 07:01:29;;;;;;;0.20;0.20;;;6.30;99.90;;;6.38;100.00;99496.41;4868837;29;20284;-76
2023/04/20 07:03:57;;;;;;;0.20;0.20;;;;;;;6.44;100.00;99508.72;4867864;29;20248;-76
2023/04/20 07:06:27;;;;;;;0.20;0.20;;;;;;;6.48;100.00;99489.50;4867652;29;20249;-75
2023/04/20 07:08:54;;;;;;;0.20;0.20;;;;;;;6.59;100.00;99503.66;4870347;29;20293;-76
2023/04/20 07:11:23;;;;;;;0.20;0.20;;;6.50;99.90;;;6.70;100.00;99515.16;4856235;29;20284;-75
2023/04/20 07:13:50;;;;;;;0.20;0.20;;;6.70;99.90;;;6.88;100.00;99542.47;4868661;29;20286;-75
2023/04/20 07:16:17;;;;;;;0.10;0.10;;;6.70;99.90;;;6.81;100.00;99525.78;4871000;29;20745;-74
2023/04/20 07:18:45;;;;;;;0.10;0.10;;;;;;;6.77;100.00;99509.97;4863619;29;20264;-74
2023/04/20 07:21:14;;;;;;;0.13;0.13;;;;;;;6.55;100.00;99486.13;4857549;29;20333;-75
2023/04/20 07:23:41;;;;;;;0.60;0.60;;;;;;;6.92;100.00;99515.34;4870342;29;20242;-75
2023/04/20 07:26:11;;;;;;;0.22;0.22;;;;;;;7.50;100.00;99589.47;4855046;29;20233;-74
2023/04/20 07:28:38;;;;;;;0.10;0.10;;;;;;;7.57;100.00;99560.59;4839909;29;20240;-75
2023/04/20 07:31:05;;;;;;;0.10;0.10;;;7.60;99.90;;;8.02;100.00;99591.59;4873518;29;20233;-75
2023/04/20 07:33:34;;;;;;;0.20;0.20;;;;;;;8.27;100.00;99589.97;4866951;29;20268;-75
2023/04/20 07:36:03;;;;;;;0.10;0.10;;;7.90;99.90;;;8.06;100.00;99528.44;4871252;29;20327;-75
2023/04/20 07:38:30;;;;;;;0.10;0.10;;;;;;;7.95;100.00;99495.03;4860509;29;20309;-76
2023/04/20 07:40:58;;;;;;;0.10;0.10;;;;;;;8.11;100.00;99481.94;4856041;29;20824;-74
2023/04/20 07:43:25;;;;;;;1.13;1.13;;;8.00;99.90;;;8.23;100.00;99476.72;4867279;29;20248;-77
2023/04/20 07:45:52;;;;;;;0.10;0.10;;;8.10;99.90;;;8.34;100.00;99477.66;4851092;29;20260;-74
2023/04/20 07:48:20;;;;;;;0.10;0.10;;;;;;;8.34;100.00;99443.41;4870132;29;20237;-75
2023/04/20 07:50:47;;;;;;;0.20;0.20;;;;;;;8.63;100.00;99461.91;4873648;29;20292;-75
2023/04/20 07:53:14;;;;;;;0.10;0.10;;;;;;;8.26;100.00;99417.03;4868138;29;20256;-74
2023/04/20 07:55:42;;;;;;;0.20;0.20;;;;;;;8.23;100.00;99408.22;4870250;29;20250;-75
2023/04/20 07:58:09;;;;;;;0.10;0.10;;;8.20;99.90;;;8.38;100.00;99425.84;4866870;29;20273;-75
2023/04/20 08:00:36;;;;;;;0.20;0.20;;;;;;;8.63;100.00;99432.91;4862731;29;20264;-75
2023/04/20 08:03:04;;;;;;;0.20;0.20;;;8.50;99.90;;;8.66;100.00;99414.47;4851239;29;20237;-76
2023/04/20 08:05:32;;;;;;;0.10;0.10;;;8.80;99.90;;;9.30;100.00;99467.19;4854057;29;20244;-75
2023/04/20 08:07:59;;;;;;;0.10;0.10;;;8.70;99.90;;;8.82;100.00;99400.41;4853371;29;20240;-75
2023/04/20 08:10:26;;;;;;;0.10;0.10;;;9.10;99.90;;;9.29;100.00;99404.75;4868279;29;20236;-75
2023/04/20 08:12:54;;;;;;;0.10;0.10;;;;;;;9.55;100.00;99416.13;4868027;29;20260;-76
2023/04/20 08:15:21;;;;;;;0.25;0.25;;;9.40;99.90;;;9.54;100.00;99379.19;4869151;29;20311;-75
2023/04/20 08:17:48;;;;;;;0.10;0.10;;;9.30;99.90;;;9.54;100.00;99360.72;4864937;29;20237;-76
2023/04/20 08:20:15;;;;;;;0.10;0.10;;;9.40;99.90;;;9.80;100.00;99350.91;4874969;29;20264;-75
2023/04/20 08:22:42;;;;;;;0.25;0.25;;;9.70;99.90;;;9.68;100.00;99332.50;4870869;29;20732;-74
2023/04/20 08:25:10;;;;;;;0.10;0.10;;;10.00;99.90;;;10.15;100.00;99350.69;4864291;29;20240;-74
2023/04/20 08:27:37;;;;;;;0.20;0.20;;;10.00;99.90;;;10.08;100.00;99309.34;4869516;29;20232;-75
2023/04/20 08:30:05;;;;;;;0.10;0.10;;;9.90;99.90;;;9.99;100.00;99264.53;4869995;29;20244;-75
2023/04/20 08:32:33;;;;;;;0.10;0.10;;;;;;;10.01;100.00;99254.81;4872003;29;20300;-74
2023/04/20 08:35:00;;;;;;;0.10;0.10;;;9.90;99.90;;;9.69;100.00;99202.25;4868740;29;20243;-74
2023/04/20 08:37:27;;;;;;;0.10;0.10;;;;;;;9.99;100.00;99237.25;4871315;29;20262;-75
2023/04/20 08:39:58;;;;;;;0.20;0.20;;;9.90;99.90;;;10.04;100.00;99219.59;4874177;29;20250;-75
2023/04/20 08:42:25;;;;;;;0.10;0.10;;;;;;;9.97;100.00;99186.19;4857011;29;20243;-75
2023/04/20 08:44:53;;;;;;;0.10;0.10;;;;;;;10.20;100.00;99165.75;4840164;29;20259;-76
2023/04/20 08:47:20;;;;;;;0.20;0.20;;;;;;;10.00;100.00;99115.75;4869740;29;20256;-75
2023/04/20 08:49:52;;;;;;;0.10;0.10;;;10.10;99.90;;;10.18;100.00;99152.53;4863747;29;20243;-73
2023/04/20 08:52:19;;;;;;;0.10;0.10;;;10.30;99.90;;;10.17;100.00;99157.84;4893523;29;20232;-75
2023/04/20 08:54:46;;;;;;;0.30;0.30;;;10.10;99.90;;;10.31;100.00;99153.31;4890678;29;20243;-76
2023/04/20 08:57:24;;;;;;;0.15;0.15;;;;;;;10.40;100.00;99118.91;4872620;29;20244;-77
2023/04/20 08:59:52;;;;;;;0.20;0.20;;;;;;;10.72;100.00;99146.72;4913354;23;20235;-78
2023/04/20 09:02:20;;;;;;;0.10;0.10;;;;;;;10.12;100.00;99081.28;4890615;29;20298;-76
2023/04/20 09:04:48;;;;;;;0.20;0.20;;;;;;;10.64;100.00;99115.09;4888608;29;20242;-78
2023/04/20 09:07:19;;;;;;;0.10;0.10;;;10.40;99.90;;;10.50;100.00;99066.81;4891757;29;20250;-76
2023/04/20 09:09:57;;;;;;;0.50;0.50;;;10.70;99.90;;;10.66;100.00;99100.09;4892952;29;20247;-74
2023/04/20 09:12:26;;;;;;;0.40;0.40;;;;;;;10.64;100.00;99079.84;4894190;29;20250;-75
2023/04/20 09:14:53;;;;;;;0.20;0.20;;;;;;;10.39;100.00;99031.69;4893713;29;20288;-74
2023/04/20 09:17:33;;;;;;;0.10;0.10;;;10.60;99.90;;;10.69;100.00;99048.94;4895578;29;20323;-74
2023/04/20 09:20:01;;;;;;;0.10;0.10;;;;;;;10.60;100.00;99020.00;4909381;29;20764;-75
2023/04/20 09:22:37;;;;;;;0.20;0.20;;;10.90;99.90;;;11.07;100.00;99057.19;4896803;29;20248;-74
2023/04/20 09:25:18;;;;;;;0.15;0.15;;;10.90;99.90;;;10.62;100.00;98986.47;4912974;29;20235;-74
2023/04/20 09:27:57;;;;;;;0.30;0.30;;;10.80;99.90;;;10.78;100.00;98988.88;4910274;29;20241;-73
2023/04/20 09:30:32;;;;;;;0.30;0.30;;;;;;;11.39;100.00;99048.75;4910788;29;20241;-74
2023/04/20 09:33:03;;;;;;;0.10;0.10;;;11.00;99.90;;;11.04;100.00;98967.31;4907170;29;20310;-74
2023/04/20 09:35:31;;;;;;;0.10;0.10;;;;;;;11.63;100.00;99025.41;4907501;29;20270;-74
2023/04/20 09:37:58;;;;;;;0.10;0.10;;;;;;;11.51;100.00;98985.03;4909997;29;20319;-74
2023/04/20 09:40:26;;;;;;;0.30;0.30;;;;;;;11.90;100.00;99016.16;4902222;29;20235;-75
2023/04/20 09:42:54;;;;;;;0.30;0.30;;;;;;;12.14;100.00;99036.88;4890616;29;20236;-74
2023/04/20 09:45:21;;;;;;;0.35;0.30;;;11.70;99.90;;;11.78;100.00;98972.25;4913067;29;20722;-74
2023/04/20 09:47:49;;;;;;;0.10;0.10;;;11.90;99.90;;;12.02;100.00;98997.38;4909323;29;20243;-74
2023/04/20 09:50:17;;;;;;;0.10;0.10;;;11.90;99.90;;;12.16;100.00;98963.53;4897678;29;20249;-73
2023/04/20 09:53:01;;;;;;;0.10;0.10;;;12.00;99.90;;;12.15;100.00;98922.03;4896731;29;20234;-74
2023/04/20 09:55:31;;;;;;;0.30;0.30;;;12.00;99.90;;;11.95;100.00;98897.72;4891626;29;20263;-74
2023/04/20 09:58:03;;;;;;;0.10;0.10;;;11.60;99.90;;;11.56;100.00;98879.03;4912700;29;20239;-74
2023/04/20 10:00:30;;;;;;;0.20;0.20;;;;;;;12.63;100.00;98996.97;4909192;29;20239;-74
2023/04/20 10:02:57;;;;;;;0.10;0.10;;;;;;;12.16;100.00;98887.53;4906604;29;20237;-74
2023/04/20 10:05:38;;;;;;;0.10;0.10;;;12.10;99.90;;;11.94;100.00;98841.22;4912387;29;20243;-74
2023/04/20 10:08:06;;;;;;;0.00;0.00;;;12.10;99.90;;;12.26;100.00;98887.34;4891923;29;20262;-74
2023/04/20 10:10:48;;;;;;;0.10;0.10;;;12.10;99.90;;;11.86;100.00;98845.81;4890776;29;20250;-75
2023/04/20 10:13:18;;;;;;;0.10;0.10;;;;;;;11.79;100.00;98826.53;4892085;29;20760;-74
2023/04/20 10:15:46;;;;;;;0.10;0.10;;;;;;;11.70;100.00;98845.25;4890008;29;20238;-74
2023/04/20 10:18:18;;;;;;;0.10;0.10;;;11.80;99.90;;;11.81;100.00;98853.00;4890675;29;20232;-74
2023/04/20 10:20:46;;;;;;;0.10;0.10;;;;;;;11.49;100.00;98806.81;4885989;29;20295;-74
2023/04/20 10:23:15;;;;;;;0.08;0.08;;;;;;;11.54;100.00;98798.78;4891095;29;20667;-76
2023/04/20 10:25:53;;;;;;;0.25;0.25;;;;;;;11.39;100.00;98785.88;4892436;29;20591;-75
2023/04/20 10:28:21;;;;;;;0.10;0.10;;;;;;;11.70;100.00;98852.28;4894200;29;20251;-75
2023/04/20 10:30:52;;;;;;;0.10;0.10;;;11.30;99.90;;;11.47;100.00;98821.84;4885712;29;20232;-75
2023/04/20 10:33:21;;;;;;;0.10;0.10;;;;;;;11.43;100.00;98821.94;4893996;29;20259;-75
2023/04/20 10:35:57;;;;;;;0.35;0.35;;;11.60;99.90;;;11.74;100.00;98861.94;4890579;29;20231;-75
2023/04/20 10:38:33;;;;;;;0.17;0.17;;;11.40;99.90;;;11.49;100.00;98835.06;4885841;29;20289;-74
2023/04/20 10:41:19;;;;;;;0.17;0.17;;;11.50;99.90;;;11.65;100.00;98840.91;4894680;29;20259;-75
2023/04/20 10:43:47;;;;;;;0.50;0.50;;;;;;;11.59;100.00;98826.03;4887961;29;20239;-75
2023/04/20 10:46:22;;;;;;;0.20;0.20;;;11.10;99.90;;;11.16;100.00;98784.56;4896565;29;20239;-74
2023/04/20 10:48:52;;;;;;;0.30;0.30;;;11.10;99.90;;;11.34;100.00;98809.78;4895243;29;20642;-75
2023/04/20 10:51:20;;;;;;;0.50;0.50;;;11.40;99.90;;;11.64;100.00;98825.94;4892668;29;20268;-75
2023/04/20 10:54:07;;;;;;;0.43;0.43;;;11.50;99.90;;;11.45;100.00;98802.50;4891885;29;20280;-74
2023/04/20 10:56:42;;;;;;;0.63;0.63;;;11.50;99.90;;;11.69;100.00;98839.94;4882118;29;20651;-74
2023/04/20 10:59:12;;;;;;;0.25;0.25;;;11.30;99.90;;;11.37;100.00;98822.06;4892268;29;20302;-75
2023/04/20 11:01:40;;;;;;;0.10;0.10;;;;;;;11.89;100.00;98840.47;4896617;29;20231;-74
2023/04/20 11:04:09;;;;;;;0.10;0.10;;;11.90;99.90;;;12.10;100.00;98847.06;4897587;29;20315;-74
2023/04/20 11:06:39;;;;;;;0.10;0.10;;;11.60;99.90;;;11.67;100.00;98784.38;4896834;29;20271;-74
2023/04/20 11:09:25;;;;;;;0.10;0.10;;;11.60;99.90;;;11.90;100.00;98793.66;4895679;29;20247;-74
2023/04/20 11:12:07;;;;;;;0.00;0.00;;;11.60;99.90;;;11.94;100.00;98768.84;4895066;29;20258;-74